Latest Weather Observations for Maningrida Airport

IDD60801

Issued at 11:05 am CST Wednesday 23 July 2014 (issued every 30 minutes, with the page automatically refreshed every 10 minutes)

About weather observations | Map of weather stations | Latest weather observations for NT | Other Formats
Station Details ID: 014405 Name: MANINGRIDA AIRPORT Lat: -12.06 Lon: 134.23 Height: 28.1 m
Data from the previous 72 hours. | See also: Recent months at Maningrida Airport
Date/Time
CST
Temp
°C
App
Temp
°C
Dew
Point
Rel
Hum
%
Delta-T
°C
Wind Press
QNH
hPa
Press
MSL
hPa
Rain
since 9 am
mm
Dir
 
Spd
km/h
Gust
km/h
Spd
kts
Gust
kts
23/11:00am 25.9 25.6 17.3 59 5.4 ESE 15 24 8 13 1014.4 - 0.0
23/10:30am 25.4 24.7 17.3 61 5.0 ESE 17 24 9 13 1014.7 - 0.0
23/10:00am 24.6 24.3 17.3 64 4.5 SE 15 22 8 12 1014.9 - 0.0
23/09:30am 23.6 22.7 17.8 70 3.6 SE 19 28 10 15 1014.9 - 0.0
23/09:00am 23.0 22.2 18.1 74 3.1 SSE 19 24 10 13 1015.1 1015.0 0.0
23/08:30am 21.6 20.8 18.0 80 2.2 SE 19 24 10 13 1015.0 - 0.0
23/08:00am 20.2 20.2 18.1 88 1.3 SSE 15 20 8 11 1014.9 - 0.0
23/07:30am 19.1 19.7 18.6 97 0.3 SSE 13 19 7 10 1014.6 - 0.0
23/07:00am 18.5 19.4 18.5 100 0.0 SSE 11 15 6 8 1014.5 - 0.0
23/06:30am 18.5 19.4 18.5 100 0.0 SSE 11 13 6 7 1014.2 - 0.0
23/06:00am 18.6 19.2 18.6 100 0.0 SSE 13 17 7 9 1014.1 1014.0 0.0
23/05:30am 18.3 18.8 18.3 100 0.0 SSE 13 17 7 9 1013.7 - 0.0
23/05:00am 18.1 18.5 18.1 100 0.0 SSE 13 17 7 9 1013.7 - 0.0
23/04:30am 18.1 18.5 18.1 100 0.0 SE 13 15 7 8 1013.6 - 0.0
23/04:00am 18.2 19.0 18.2 100 0.0 SSE 11 13 6 7 1013.7 - 0.0
23/03:30am 18.5 19.2 18.0 97 0.3 SSE 11 15 6 8 1013.6 - 0.0
23/03:00am 18.8 19.0 17.6 93 0.7 SE 13 17 7 9 1013.7 1013.6 0.0
23/02:30am 19.3 19.1 17.6 90 1.0 SSE 15 22 8 12 1013.8 - 0.0
23/02:00am 20.2 19.7 17.8 86 1.5 SE 17 20 9 11 1013.9 - 0.0
23/01:30am 20.0 19.2 17.0 83 1.8 SE 17 20 9 11 1014.1 - 0.0
23/01:00am 20.3 19.7 16.7 80 2.2 SE 15 20 8 11 1014.3 - 0.0
23/12:30am 20.8 20.6 16.8 78 2.4 ESE 13 19 7 10 1014.6 - 0.0
23/12:00am 21.1 20.9 16.7 76 2.7 ESE 13 17 7 9 1014.6 1014.5 0.0
 
Date/Time
CST
Temp
°C
App
Temp
°C
Dew
Point
Rel
Hum
%
Delta-T
°C
Wind Press
QNH
hPa
Press
MSL
hPa
Rain
since 9 am
mm
Dir
 
Spd
km/h
Gust
km/h
Spd
kts
Gust
kts
22/11:30pm 21.6 21.1 17.0 75 2.8 ESE 15 20 8 11 1014.7 - 0.0
22/11:00pm 21.6 21.6 17.2 76 2.7 ESE 13 17 7 9 1014.9 - 0.0
22/10:30pm 21.2 22.4 19.1 88 1.3 SE 11 15 6 8 1014.9 - 0.0
22/10:00pm 22.0 23.9 20.5 91 1.0 ESE 11 13 6 7 1014.6 - 0.0
22/09:30pm 22.2 24.6 20.1 88 1.4 ESE 7 9 4 5 1014.1 - 0.0
22/09:00pm 22.8 25.4 20.5 87 1.5 E 7 9 4 5 1013.9 1013.8 0.0
22/08:30pm 23.1 25.4 19.9 82 2.1 E 7 9 4 5 1013.6 - 0.0
22/08:00pm 23.5 25.6 19.4 78 2.6 E 7 11 4 6 1013.3 - 0.0
22/07:30pm 23.9 25.4 19.0 74 3.1 E 9 11 5 6 1013.0 - 0.0
22/07:00pm 24.3 26.1 18.7 71 3.6 E 7 9 4 5 1012.7 - 0.0
22/06:30pm 24.8 26.6 18.7 69 3.9 E 7 11 4 6 1012.5 - 0.0
22/06:00pm 25.6 26.8 18.3 64 4.6 ENE 9 15 5 8 1012.3 1012.2 0.0
22/05:30pm 26.9 27.7 17.4 56 6.0 E 9 11 5 6 1012.1 - 0.0
22/05:00pm 27.3 28.2 18.3 58 5.7 ENE 11 15 6 8 1012.0 - 0.0
22/04:30pm 28.1 28.3 16.7 50 7.1 ENE 11 15 6 8 1011.8 - 0.0
22/04:00pm 28.6 28.3 16.5 48 7.5 NE 13 19 7 10 1011.7 - 0.0
22/03:30pm 28.5 28.2 16.4 48 7.5 NE 13 19 7 10 1011.8 - 0.0
22/03:00pm 28.8 28.0 17.0 49 7.4 SE 17 24 9 13 1012.0 1011.9 0.0
22/02:30pm 28.1 27.0 16.4 49 7.3 E 17 24 9 13 1012.4 - 0.0
22/02:00pm 28.3 27.0 15.9 47 7.6 ESE 17 24 9 13 1012.9 - 0.0
22/01:30pm 27.9 27.1 17.1 51 6.8 E 17 24 9 13 1013.3 - 0.0
22/01:00pm 27.3 26.5 16.0 50 7.0 E 15 30 8 16 1013.8 - 0.0
22/12:30pm 28.0 26.4 16.0 48 7.4 E 19 28 10 15 1014.3 - 0.0
22/12:00pm 27.6 25.9 16.2 49 7.0 ESE 20 30 11 16 1015.0 1014.9 0.0
22/11:30am 27.2 25.9 16.8 53 6.5 SE 19 26 10 14 1015.6 - 0.0
22/11:00am 26.2 25.0 16.2 54 6.1 ESE 17 26 9 14 1016.1 - 0.0
22/10:30am 25.2 22.6 14.9 52 6.2 ESE 22 33 12 18 1016.3 - 0.0
22/10:00am 24.9 23.0 15.2 54 5.8 ESE 19 26 10 14 1016.6 - 0.0
22/09:30am 23.6 22.4 15.1 59 5.1 ESE 15 20 8 11 1016.8 - 0.0
22/09:00am 23.2 22.6 16.7 67 4.0 ESE 15 22 8 12 1016.7 1016.6 0.0
22/08:30am 21.6 22.8 19.0 85 1.6 ESE 11 17 6 9 1016.7 - 0.0
22/08:00am 20.0 19.9 18.8 93 0.8 ESE 17 24 9 13 1016.4 - 0.0
22/07:30am 19.5 20.5 19.5 100 0.0 SE 13 17 7 9 1015.9 - 0.0
22/07:00am 18.7 19.0 18.7 100 0.0 SE 15 19 8 10 1015.6 - 0.0
22/06:30am 19.0 20.2 19.0 100 0.0 ESE 11 15 6 8 1015.4 - 0.0
22/06:00am 19.2 19.6 19.0 99 0.1 SE 15 19 8 10 1015.1 1015.0 0.0
22/05:30am 19.5 20.0 19.2 98 0.2 SE 15 20 8 11 1015.0 - 0.0
22/05:00am 19.5 20.0 19.2 98 0.2 SE 15 20 8 11 1014.9 - 0.0
22/04:30am 19.7 20.1 19.0 96 0.4 SE 15 20 8 11 1014.9 - 0.0
22/04:00am 19.9 20.3 19.1 95 0.5 SE 15 20 8 11 1014.7 - 0.0
22/03:30am 19.9 20.3 18.9 94 0.6 SE 15 22 8 12 1014.7 - 0.0
22/03:00am 19.3 19.9 18.6 96 0.4 SE 13 15 7 8 1015.0 1014.9 0.0
22/02:30am 19.2 19.6 18.2 94 0.6 SSE 13 17 7 9 1015.3 - 0.0
22/02:00am 19.5 20.5 17.8 90 1.0 SE 9 13 5 7 1015.4 - 0.0
22/01:30am 19.9 21.3 17.9 88 1.2 SSE 7 11 4 6 1015.5 - 0.0
22/01:00am 20.5 21.6 17.9 85 1.6 S 9 13 5 7 1015.7 - 0.0
22/12:30am 21.0 22.0 17.8 82 2.0 SSE 9 11 5 6 1015.7 - 0.0
22/12:00am 21.5 21.6 17.5 78 2.5 SSE 13 17 7 9 1015.6 1015.5 0.0
 
Date/Time
CST
Temp
°C
App
Temp
°C
Dew
Point
Rel
Hum
%
Delta-T
°C
Wind Press
QNH
hPa
Press
MSL
hPa
Rain
since 9 am
mm
Dir
 
Spd
km/h
Gust
km/h
Spd
kts
Gust
kts
21/11:30pm 22.1 22.2 17.5 75 2.8 SE 13 19 7 10 1015.6 - 0.0
21/11:00pm 22.5 22.4 17.8 75 2.9 ESE 15 19 8 10 1015.5 - 0.0
21/10:30pm 22.8 24.1 19.4 81 2.2 ESE 11 13 6 7 1015.5 - 0.0
21/10:00pm 22.9 25.3 20.8 88 1.4 E 9 13 5 7 1015.6 - 0.0
21/09:30pm 23.0 25.7 21.3 90 1.1 E 9 13 5 7 1015.5 - 0.0
21/09:00pm 23.2 26.1 21.1 88 1.4 E 7 11 4 6 1015.5 1015.4 0.0
21/08:30pm 23.5 26.0 21.0 86 1.6 E 9 11 5 6 1015.1 - 0.0
21/08:00pm 23.7 26.1 20.8 84 1.9 E 9 13 5 7 1014.7 - 0.0
21/07:30pm 24.0 26.2 20.3 80 2.4 E 9 13 5 7 1014.2 - 0.0
21/07:00pm 24.3 26.2 19.8 76 2.9 E 9 11 5 6 1013.9 - 0.0
21/06:30pm 24.9 25.7 19.0 69 3.8 ENE 13 20 7 11 1013.4 - 0.0
21/06:00pm 25.4 26.0 18.6 66 4.3 E 13 19 7 10 1013.1 1013.0 0.0
21/05:30pm 25.8 26.1 18.7 65 4.5 ENE 15 22 8 12 1012.9 - 0.0
21/05:00pm 26.0 26.0 18.9 65 4.5 ENE 17 24 9 13 1012.7 - 0.0
21/04:30pm 26.1 25.6 17.7 60 5.3 NE 17 32 9 17 1012.8 - 0.0
21/04:00pm 26.4 25.3 17.2 57 5.7 ENE 19 30 10 16 1012.6 - 0.0
21/03:30pm 27.2 25.6 16.5 52 6.6 NE 20 32 11 17 1012.5 - 0.0
21/03:00pm 28.5 26.2 14.7 43 8.4 ENE 20 30 11 16 1012.5 1012.4 0.0
21/02:30pm 28.9 26.5 14.3 40 8.8 ENE 20 28 11 15 1012.8 - 0.0
21/02:00pm 29.8 27.3 13.5 36 9.7 E 19 28 10 15 1013.0 - 0.0
21/01:30pm 29.8 27.0 11.3 32 10.7 E 17 30 9 16 1013.4 - 0.0
21/01:00pm 29.5 27.0 14.1 39 9.3 SE 20 30 11 16 1013.8 - 0.0
21/12:30pm 29.2 26.2 13.8 39 9.2 ESE 22 35 12 19 1014.2 - 0.0
21/12:00pm 29.0 26.4 13.2 37 9.4 ESE 19 24 10 13 1014.6 1014.5 0.0
21/11:30am 28.3 25.3 13.8 41 8.7 SE 22 30 12 16 1015.1 - 0.0
21/11:00am 27.5 26.2 15.8 48 7.2 SE 17 26 9 14 1015.4 - 0.0
21/10:30am 26.4 24.6 15.4 50 6.7 ESE 19 26 10 14 1015.7 - 0.0
21/10:00am 25.6 24.5 16.4 56 5.7 ESE 17 26 9 14 1015.8 - 0.0
21/09:30am 24.3 24.9 18.5 70 3.7 SE 13 20 7 11 1015.9 - 0.0
21/09:00am 22.9 22.8 18.7 77 2.7 SE 17 22 9 12 1015.9 1015.8 0.0
21/08:30am 21.7 21.2 18.7 83 1.9 SE 19 26 10 14 1015.8 - 0.0
21/08:00am 19.9 19.9 18.2 90 1.1 SE 15 20 8 11 1015.6 - 0.0
21/07:30am 18.4 19.2 18.2 99 0.1 SSE 11 15 6 8 1015.4 - 0.0
21/07:00am 17.7 18.2 17.5 99 0.1 SSE 11 15 6 8 1015.1 - 0.0
21/06:30am 18.1 18.3 17.6 97 0.3 SSE 13 17 7 9 1014.9 - 0.0
21/06:00am 18.7 19.0 17.9 95 0.5 SSE 13 17 7 9 1014.7 1014.6 0.0
21/05:30am 18.8 19.1 18.0 95 0.5 SSE 13 15 7 8 1014.5 - 0.0
21/05:00am 18.5 18.3 17.5 94 0.6 SE 15 17 8 9 1014.6 - 0.0
21/04:30am 18.7 18.8 17.4 92 0.8 SE 13 19 7 10 1014.6 - 0.0
21/04:00am 18.9 19.0 17.4 91 0.9 SE 13 15 7 8 1014.6 - 0.0
21/03:30am 18.9 18.8 17.0 89 1.1 SE 13 15 7 8 1014.7 - 0.0
21/03:00am 19.2 19.3 16.6 85 1.6 SE 11 15 6 8 1014.9 1014.8 0.0
21/02:30am 19.8 19.1 16.4 81 2.0 SE 15 19 8 10 1015.1 - 0.0
21/02:00am 20.5 19.8 16.3 77 2.5 SE 15 20 8 11 1015.1 - 0.0
21/01:30am 20.7 20.0 16.3 76 2.7 SE 15 20 8 11 1015.1 - 0.0
21/01:00am 21.1 19.7 16.5 75 2.8 ESE 19 22 10 12 1015.4 - 0.0
21/12:30am 21.3 20.7 16.7 75 2.8 ESE 15 20 8 11 1015.5 - 0.0
21/12:00am 21.4 21.4 17.2 77 2.6 ESE 13 17 7 9 1015.4 1015.3 0.0
 
Date/Time
CST
Temp
°C
App
Temp
°C
Dew
Point
Rel
Hum
%
Delta-T
°C
Wind Press
QNH
hPa
Press
MSL
hPa
Rain
since 9 am
mm
Dir
 
Spd
km/h
Gust
km/h
Spd
kts
Gust
kts
20/11:30pm 22.0 21.7 17.4 75 2.8 ESE 15 19 8 10 1015.4 - 0.0
20/11:00pm 22.6 22.1 17.7 74 3.0 ESE 17 20 9 11 1015.3 - 0.0
20/10:30pm 22.9 23.3 19.1 79 2.4 ESE 15 22 8 12 1015.2 - 0.0
20/10:00pm 22.6 24.9 20.7 89 1.2 ESE 9 13 5 7 1015.0 - 0.0
20/09:30pm 22.7 25.2 21.0 90 1.1 ESE 9 13 5 7 1014.7 - 0.0
20/09:00pm 22.9 25.3 20.8 88 1.4 E 9 11 5 6 1014.6 1014.5 0.0
20/08:30pm 23.2 25.8 20.5 85 1.8 E 7 9 4 5 1014.2 - 0.0
20/08:00pm 23.5 26.3 20.4 83 2.0 E 6 7 3 4 1014.1 - 0.0
20/07:30pm 23.9 26.6 20.2 80 2.4 E 6 7 3 4 1013.7 - 0.0
20/07:00pm 24.3 26.8 19.8 76 2.9 E 6 7 3 4 1013.1 - 0.0
20/06:30pm 25.0 26.6 19.1 70 3.8 ENE 9 13 5 7 1012.8 - 0.0
20/06:00pm 25.9 27.0 18.8 65 4.5 ENE 11 15 6 8 1012.5 1012.4 0.0
20/05:30pm 26.5 27.5 18.6 62 5.0 NE 11 15 6 8 1012.4 - 0.0
20/05:00pm 27.2 27.9 18.8 60 5.4 NE 13 19 7 10 1012.3 - 0.0
20/04:30pm 27.3 27.7 18.9 60 5.4 N 15 19 8 10 1012.3 - 0.0
20/04:00pm 28.0 28.1 19.2 58 5.7 N 17 24 9 13 1012.3 - 0.0
20/03:30pm 27.4 26.6 18.4 58 5.7 N 20 26 11 14 1012.3 - 0.0
20/03:00pm 28.2 27.8 17.1 51 7.0 NNE 15 20 8 11 1012.5 1012.4 0.0
20/02:30pm 28.0 27.1 16.9 51 6.9 NE 17 26 9 14 1012.6 - 0.0
20/02:00pm 28.9 28.4 17.7 50 7.1 E 17 28 9 15 1013.0 - 0.0
20/01:30pm 28.5 28.2 16.4 48 7.5 ENE 13 24 7 13 1013.5 - 0.0
20/01:00pm 28.0 27.2 17.2 52 6.8 E 17 26 9 14 1014.1 - 0.0
20/12:30pm 28.4 27.4 15.7 46 7.8 ESE 15 26 8 14 1014.5 - 0.0
20/12:00pm 28.3 26.1 13.4 40 8.8 E 17 26 9 14 1014.9 1014.8 0.0
20/11:30am 27.4 25.3 13.7 43 8.1 ESE 17 26 9 14 1015.4 - 0.0

Other Formats:

Comma delimited format used in spreadsheet applications
http://www.bom.gov.au/fwo/IDD60801/IDD60801.95142.axf

JavaScript Object Notation format (JSON) in row-major order
http://www.bom.gov.au/fwo/IDD60801/IDD60801.95142.json